CST,Max TemperatureF,Mean TemperatureF,Min TemperatureF,Max Dew PointF,MeanDew PointF,Min DewpointF,Max Humidity, Mean Humidity, Min Humidity, Max Sea Level PressureIn, Mean Sea Level PressureIn, Min Sea Level PressureIn, Max VisibilityMiles, Mean VisibilityMiles, Min VisibilityMiles, Max Wind SpeedMPH, Mean Wind SpeedMPH, Max Gust SpeedMPH,PrecipitationIn, CloudCover, Events, WindDirDegrees
2012-11-1,74,63,53,64,51,38,97,63,31,30.08,30.01,29.96,10,10,10,10,7,20,0.00,1,Rain,334
2012-11-2,77,62,46,69,60,45,97,81,64,30.09,30.06,30.00,10,10,10,14,5,18,0.00,0,,259
2012-11-3,79,68,57,70,62,57,100,96,69,30.13,30.09,30.05,10,4,0,13,2,,0.00,0,Fog-Rain,265
2012-11-4,80,70,59,69,64,58,100,92,65,30.11,30.07,30.00,10,5,0,14,5,,0.00,3,Fog,292
2012-11-5,71,60,49,56,48,43,98,60,38,30.08,30.01,29.88,10,10,10,12,5,26,0.00,2,Rain,52
2012-11-6,66,58,49,56,51,46,100,86,52,30.02,29.95,29.89,10,9,2,14,8,18,0.49,5,Rain,335
2012-11-7,64,55,46,47,44,39,94,66,45,30.12,30.02,29.94,10,10,10,17,7,25,0.00,3,,326
2012-11-8,66,52,39,48,43,38,94,62,42,30.23,30.18,30.12,10,10,10,10,7,,0.00,0,Rain,7
2012-11-9,68,53,38,50,46,37,97,67,46,30.31,30.26,30.21,10,10,10,10,6,,0.00,0,Rain,83
2012-11-10,70,56,43,59,53,43,97,74,50,30.33,30.27,30.24,10,10,10,10,5,,0.00,1,,88
2012-11-11,73,63,53,64,59,51,94,81,66,30.30,30.24,30.21,10,10,10,18,7,29,0.00,3,,100
2012-11-12,75,64,53,70,63,52,100,94,83,30.26,30.21,30.16,10,9,1,18,9,25,0.42,6,Rain,30
2012-11-13,63,53,43,52,39,34,94,65,33,30.31,30.25,30.20,10,10,10,20,14,26,0.00,3,Rain,4
2012-11-14,64,52,41,55,51,35,97,82,68,30.26,30.21,30.17,10,10,10,12,7,,0.00,4,Rain,29
2012-11-15,61,56,50,54,51,45,100,85,65,30.25,30.22,30.18,10,10,8,12,7,17,0.00,7,Rain,29
2012-11-16,55,49,42,49,46,42,99,86,77,30.28,30.25,30.22,10,10,10,12,7,,0.00,6,Rain,37
2012-11-17,64,52,39,48,45,39,100,67,51,30.32,30.27,30.23,10,10,8,16,9,20,0.00,0,Rain,29
2012-11-18,66,56,45,52,46,37,89,65,49,30.30,30.26,30.22,10,10,8,13,7,,0.00,1,Rain,35
2012-11-19,71,57,43,57,50,42,96,69,49,30.27,30.22,30.16,10,10,10,12,6,18,0.00,0,Rain,17
2012-11-20,69,56,43,58,54,43,98,75,60,30.19,30.13,30.09,10,10,10,9,5,,0.00,5,Rain,355
2012-11-21,73,59,45,53,51,45,99,63,47,30.19,30.13,30.09,10,10,10,13,7,,0.00,0,Rain,7
2012-11-22,71,58,45,59,53,45,98,73,50,30.25,30.20,30.16,10,10,10,12,6,,0.00,0,Rain,132
2012-11-23,73,59,45,59,53,45,99,79,45,30.26,30.18,30.12,10,10,10,13,7,,0.00,0,,315
2012-11-24,62,50,39,54,36,29,90,54,32,30.24,30.17,30.13,10,10,10,14,10,,0.00,0,Rain,353
2012-11-25,59,44,30,40,34,28,95,57,35,30.25,30.18,30.14,10,10,10,9,4,,0.00,0,Rain,149
2012-11-26,66,50,35,63,54,35,97,80,62,30.23,30.17,30.14,10,10,10,10,7,,0.00,4,,112
2012-11-27,68,62,55,66,61,54,100,96,78,30.25,30.17,30.10,10,8,1,17,7,30,1.14,7,Rain,337
2012-11-28,62,52,42,54,46,40,100,79,48,30.38,30.32,30.23,10,10,7,16,11,,0.00,3,Rain,9
2012-11-29,64,51,38,52,49,38,100,78,63,30.38,30.32,30.28,10,10,6,12,6,,0.00,4,Rain,68
2012-11-30,69,58,48,62,56,48,100,86,73,30.30,30.26,30.21,10,10,10,10,6,,0.00,5,Rain,69